sensor_id;sensor_type;location;lat;lon;timestamp;temperature;humidity
8103;DHT22;4094;49.948;11.574;2022-12-08T00:00:21;7.00;69.30
8103;DHT22;4094;49.948;11.574;2022-12-08T00:02:50;7.00;69.50
8103;DHT22;4094;49.948;11.574;2022-12-08T00:05:20;7.00;69.60
8103;DHT22;4094;49.948;11.574;2022-12-08T00:08:09;7.00;69.60
8103;DHT22;4094;49.948;11.574;2022-12-08T00:10:56;7.00;69.40
8103;DHT22;4094;49.948;11.574;2022-12-08T00:13:25;7.00;69.40
8103;DHT22;4094;49.948;11.574;2022-12-08T00:15:59;7.00;69.80
8103;DHT22;4094;49.948;11.574;2022-12-08T00:18:28;7.00;69.90
8103;DHT22;4094;49.948;11.574;2022-12-08T00:20:57;7.00;69.70
8103;DHT22;4094;49.948;11.574;2022-12-08T00:23:28;7.00;69.60
8103;DHT22;4094;49.948;11.574;2022-12-08T00:26:01;7.00;69.40
8103;DHT22;4094;49.948;11.574;2022-12-08T00:28:30;7.00;69.50
8103;DHT22;4094;49.948;11.574;2022-12-08T00:30:59;7.00;69.60
8103;DHT22;4094;49.948;11.574;2022-12-08T00:33:28;7.00;69.80
8103;DHT22;4094;49.948;11.574;2022-12-08T00:35:57;7.00;69.70
8103;DHT22;4094;49.948;11.574;2022-12-08T00:38:27;7.00;69.70
8103;DHT22;4094;49.948;11.574;2022-12-08T00:40:56;7.00;69.70
8103;DHT22;4094;49.948;11.574;2022-12-08T00:43:25;7.00;69.70
8103;DHT22;4094;49.948;11.574;2022-12-08T00:45:54;7.00;69.70
8103;DHT22;4094;49.948;11.574;2022-12-08T00:48:24;7.00;69.60
8103;DHT22;4094;49.948;11.574;2022-12-08T00:50:53;7.00;69.50
8103;DHT22;4094;49.948;11.574;2022-12-08T00:53:22;7.00;69.30
8103;DHT22;4094;49.948;11.574;2022-12-08T00:55:52;7.00;69.30
8103;DHT22;4094;49.948;11.574;2022-12-08T00:58:21;7.00;69.30
8103;DHT22;4094;49.948;11.574;2022-12-08T01:00:50;7.00;69.40
8103;DHT22;4094;49.948;11.574;2022-12-08T01:03:19;7.10;69.40
8103;DHT22;4094;49.948;11.574;2022-12-08T01:05:48;7.00;69.50
8103;DHT22;4094;49.948;11.574;2022-12-08T01:08:18;7.00;69.60
8103;DHT22;4094;49.948;11.574;2022-12-08T01:10:47;7.10;69.40
8103;DHT22;4094;49.948;11.574;2022-12-08T01:13:17;7.00;69.20
8103;DHT22;4094;49.948;11.574;2022-12-08T01:15:47;7.10;69.20
8103;DHT22;4094;49.948;11.574;2022-12-08T01:18:16;7.10;69.20
8103;DHT22;4094;49.948;11.574;2022-12-08T01:20:45;7.00;69.10
8103;DHT22;4094;49.948;11.574;2022-12-08T01:23:14;7.00;69.20
8103;DHT22;4094;49.948;11.574;2022-12-08T01:25:43;7.00;69.30
8103;DHT22;4094;49.948;11.574;2022-12-08T01:28:12;7.00;69.20
8103;DHT22;4094;49.948;11.574;2022-12-08T01:30:43;7.00;69.00
8103;DHT22;4094;49.948;11.574;2022-12-08T01:33:12;7.00;69.00
8103;DHT22;4094;49.948;11.574;2022-12-08T01:35:41;7.00;69.10
8103;DHT22;4094;49.948;11.574;2022-12-08T01:38:10;7.00;69.10
8103;DHT22;4094;49.948;11.574;2022-12-08T01:40:39;7.00;69.20
8103;DHT22;4094;49.948;11.574;2022-12-08T01:43:11;7.00;69.30
8103;DHT22;4094;49.948;11.574;2022-12-08T01:45:43;7.00;69.40
8103;DHT22;4094;49.948;11.574;2022-12-08T01:48:16;7.00;69.40
8103;DHT22;4094;49.948;11.574;2022-12-08T01:50:47;7.00;69.30
8103;DHT22;4094;49.948;11.574;2022-12-08T01:53:18;7.00;69.20
8103;DHT22;4094;49.948;11.574;2022-12-08T01:55:50;7.10;69.10
8103;DHT22;4094;49.948;11.574;2022-12-08T01:58:25;7.10;68.90
8103;DHT22;4094;49.948;11.574;2022-12-08T02:00:56;7.10;68.70
8103;DHT22;4094;49.948;11.574;2022-12-08T02:03:28;7.10;68.60
8103;DHT22;4094;49.948;11.574;2022-12-08T02:05:59;7.10;68.50
8103;DHT22;4094;49.948;11.574;2022-12-08T02:08:28;7.10;68.40
8103;DHT22;4094;49.948;11.574;2022-12-08T02:10:58;7.00;68.20
8103;DHT22;4094;49.948;11.574;2022-12-08T02:13:27;7.00;68.30
8103;DHT22;4094;49.948;11.574;2022-12-08T02:16:01;7.00;68.00
8103;DHT22;4094;49.948;11.574;2022-12-08T02:18:47;7.00;68.00
8103;DHT22;4094;49.948;11.574;2022-12-08T02:21:45;6.90;68.30
8103;DHT22;4094;49.948;11.574;2022-12-08T02:24:22;6.90;68.20
8103;DHT22;4094;49.948;11.574;2022-12-08T02:27:24;6.90;68.20
8103;DHT22;4094;49.948;11.574;2022-12-08T02:30:19;6.80;68.30
8103;DHT22;4094;49.948;11.574;2022-12-08T02:35:58;6.80;68.40
8103;DHT22;4094;49.948;11.574;2022-12-08T02:38:47;6.80;68.40
8103;DHT22;4094;49.948;11.574;2022-12-08T02:41:30;6.80;68.60
8103;DHT22;4094;49.948;11.574;2022-12-08T02:44:04;6.70;68.60
8103;DHT22;4094;49.948;11.574;2022-12-08T02:46:38;6.80;68.50
8103;DHT22;4094;49.948;11.574;2022-12-08T02:49:08;6.80;68.50
8103;DHT22;4094;49.948;11.574;2022-12-08T02:51:39;6.70;68.40
8103;DHT22;4094;49.948;11.574;2022-12-08T02:54:08;6.80;68.40
8103;DHT22;4094;49.948;11.574;2022-12-08T02:56:49;6.70;68.60
8103;DHT22;4094;49.948;11.574;2022-12-08T02:59:31;6.70;68.40
8103;DHT22;4094;49.948;11.574;2022-12-08T03:02:17;6.60;68.60
8103;DHT22;4094;49.948;11.574;2022-12-08T03:04:54;6.70;68.80
8103;DHT22;4094;49.948;11.574;2022-12-08T03:07:32;6.60;68.60
8103;DHT22;4094;49.948;11.574;2022-12-08T03:10:08;6.60;68.70
8103;DHT22;4094;49.948;11.574;2022-12-08T03:12:42;6.60;69.00
8103;DHT22;4094;49.948;11.574;2022-12-08T03:15:18;6.60;69.30
8103;DHT22;4094;49.948;11.574;2022-12-08T03:17:50;6.50;69.30
8103;DHT22;4094;49.948;11.574;2022-12-08T03:20:22;6.50;69.40
8103;DHT22;4094;49.948;11.574;2022-12-08T03:22:55;6.50;69.60
8103;DHT22;4094;49.948;11.574;2022-12-08T03:25:27;6.40;69.70
8103;DHT22;4094;49.948;11.574;2022-12-08T03:27:58;6.50;70.00
8103;DHT22;4094;49.948;11.574;2022-12-08T03:30:30;6.50;70.00
8103;DHT22;4094;49.948;11.574;2022-12-08T03:33:04;6.40;70.30
8103;DHT22;4094;49.948;11.574;2022-12-08T03:35:35;6.50;70.40
8103;DHT22;4094;49.948;11.574;2022-12-08T03:38:08;6.50;70.20
8103;DHT22;4094;49.948;11.574;2022-12-08T03:40:39;6.50;70.00
8103;DHT22;4094;49.948;11.574;2022-12-08T03:43:08;6.40;70.00
8103;DHT22;4094;49.948;11.574;2022-12-08T03:45:37;6.40;70.00
8103;DHT22;4094;49.948;11.574;2022-12-08T03:48:06;6.50;70.20
8103;DHT22;4094;49.948;11.574;2022-12-08T03:50:35;6.50;70.20
8103;DHT22;4094;49.948;11.574;2022-12-08T03:53:06;6.50;70.30
8103;DHT22;4094;49.948;11.574;2022-12-08T03:55:34;6.50;70.50
8103;DHT22;4094;49.948;11.574;2022-12-08T03:58:03;6.50;70.20
8103;DHT22;4094;49.948;11.574;2022-12-08T04:00:33;6.60;70.10
8103;DHT22;4094;49.948;11.574;2022-12-08T04:03:02;6.60;70.00
8103;DHT22;4094;49.948;11.574;2022-12-08T04:05:33;6.60;70.00
8103;DHT22;4094;49.948;11.574;2022-12-08T04:08:02;6.60;69.70
8103;DHT22;4094;49.948;11.574;2022-12-08T04:10:32;6.50;69.70
8103;DHT22;4094;49.948;11.574;2022-12-08T04:13:03;6.60;70.00
8103;DHT22;4094;49.948;11.574;2022-12-08T04:15:31;6.50;69.80
8103;DHT22;4094;49.948;11.574;2022-12-08T04:18:01;6.50;70.00
8103;DHT22;4094;49.948;11.574;2022-12-08T04:20:30;6.60;70.10
8103;DHT22;4094;49.948;11.574;2022-12-08T04:22:59;6.60;69.90
8103;DHT22;4094;49.948;11.574;2022-12-08T04:25:28;6.50;69.70
8103;DHT22;4094;49.948;11.574;2022-12-08T04:27:58;6.50;69.80
8103;DHT22;4094;49.948;11.574;2022-12-08T04:30:27;6.50;69.70
8103;DHT22;4094;49.948;11.574;2022-12-08T04:32:56;6.50;69.90
8103;DHT22;4094;49.948;11.574;2022-12-08T04:35:25;6.50;70.00
8103;DHT22;4094;49.948;11.574;2022-12-08T04:37:55;6.50;70.20
8103;DHT22;4094;49.948;11.574;2022-12-08T04:40:24;6.50;70.30
8103;DHT22;4094;49.948;11.574;2022-12-08T04:42:53;6.60;70.30
8103;DHT22;4094;49.948;11.574;2022-12-08T04:45:24;6.60;70.10
8103;DHT22;4094;49.948;11.574;2022-12-08T04:47:54;6.60;69.80
8103;DHT22;4094;49.948;11.574;2022-12-08T04:50:23;6.60;69.80
8103;DHT22;4094;49.948;11.574;2022-12-08T04:52:52;6.60;69.80
8103;DHT22;4094;49.948;11.574;2022-12-08T04:55:21;6.60;70.10
8103;DHT22;4094;49.948;11.574;2022-12-08T04:57:50;6.60;70.20
8103;DHT22;4094;49.948;11.574;2022-12-08T05:00:19;6.60;70.50
8103;DHT22;4094;49.948;11.574;2022-12-08T05:02:49;6.60;70.40
8103;DHT22;4094;49.948;11.574;2022-12-08T05:05:18;6.60;70.30
8103;DHT22;4094;49.948;11.574;2022-12-08T05:07:47;6.60;70.20
8103;DHT22;4094;49.948;11.574;2022-12-08T05:10:16;6.70;70.30
8103;DHT22;4094;49.948;11.574;2022-12-08T05:12:45;6.60;70.00
8103;DHT22;4094;49.948;11.574;2022-12-08T05:15:14;6.70;70.10
8103;DHT22;4094;49.948;11.574;2022-12-08T05:17:43;6.70;70.20
8103;DHT22;4094;49.948;11.574;2022-12-08T05:20:13;6.60;70.40
8103;DHT22;4094;49.948;11.574;2022-12-08T05:22:42;6.70;70.20
8103;DHT22;4094;49.948;11.574;2022-12-08T05:25:11;6.70;70.20
8103;DHT22;4094;49.948;11.574;2022-12-08T05:27:41;6.70;70.80
8103;DHT22;4094;49.948;11.574;2022-12-08T05:30:10;6.70;70.20
8103;DHT22;4094;49.948;11.574;2022-12-08T05:32:39;6.70;70.50
8103;DHT22;4094;49.948;11.574;2022-12-08T05:35:09;6.70;70.20
8103;DHT22;4094;49.948;11.574;2022-12-08T05:37:39;6.70;69.90
8103;DHT22;4094;49.948;11.574;2022-12-08T05:40:09;6.70;69.80
8103;DHT22;4094;49.948;11.574;2022-12-08T05:42:38;6.70;70.00
8103;DHT22;4094;49.948;11.574;2022-12-08T05:45:09;6.70;70.00
8103;DHT22;4094;49.948;11.574;2022-12-08T05:47:38;6.70;70.10
8103;DHT22;4094;49.948;11.574;2022-12-08T05:50:07;6.70;69.90
8103;DHT22;4094;49.948;11.574;2022-12-08T05:52:36;6.70;69.80
8103;DHT22;4094;49.948;11.574;2022-12-08T05:55:07;6.70;69.80
8103;DHT22;4094;49.948;11.574;2022-12-08T05:57:38;6.60;69.80
8103;DHT22;4094;49.948;11.574;2022-12-08T06:00:07;6.60;70.00
8103;DHT22;4094;49.948;11.574;2022-12-08T06:02:40;6.60;70.10
8103;DHT22;4094;49.948;11.574;2022-12-08T06:05:09;6.60;70.00
8103;DHT22;4094;49.948;11.574;2022-12-08T06:07:38;6.60;70.00
8103;DHT22;4094;49.948;11.574;2022-12-08T06:10:09;6.60;70.10
8103;DHT22;4094;49.948;11.574;2022-12-08T06:12:38;6.60;70.20
8103;DHT22;4094;49.948;11.574;2022-12-08T06:15:08;6.60;70.40
8103;DHT22;4094;49.948;11.574;2022-12-08T06:17:38;6.60;70.50
8103;DHT22;4094;49.948;11.574;2022-12-08T06:20:08;6.60;70.50
8103;DHT22;4094;49.948;11.574;2022-12-08T06:22:39;6.60;70.40
8103;DHT22;4094;49.948;11.574;2022-12-08T06:25:10;6.60;70.20
8103;DHT22;4094;49.948;11.574;2022-12-08T06:27:39;6.60;70.00
8103;DHT22;4094;49.948;11.574;2022-12-08T06:30:08;6.60;70.10
8103;DHT22;4094;49.948;11.574;2022-12-08T06:32:37;6.60;70.40
8103;DHT22;4094;49.948;11.574;2022-12-08T06:35:07;6.60;70.50
8103;DHT22;4094;49.948;11.574;2022-12-08T06:37:37;6.60;70.20
8103;DHT22;4094;49.948;11.574;2022-12-08T06:40:07;6.60;70.00
8103;DHT22;4094;49.948;11.574;2022-12-08T06:42:37;6.60;69.80
8103;DHT22;4094;49.948;11.574;2022-12-08T06:45:14;6.60;70.00
8103;DHT22;4094;49.948;11.574;2022-12-08T06:47:44;6.50;70.10
8103;DHT22;4094;49.948;11.574;2022-12-08T06:50:13;6.50;70.20
8103;DHT22;4094;49.948;11.574;2022-12-08T06:52:42;6.50;70.20
8103;DHT22;4094;49.948;11.574;2022-12-08T06:55:29;6.50;70.20
8103;DHT22;4094;49.948;11.574;2022-12-08T06:58:20;6.60;70.40
8103;DHT22;4094;49.948;11.574;2022-12-08T07:00:49;6.60;70.20
8103;DHT22;4094;49.948;11.574;2022-12-08T07:03:18;6.60;70.00
8103;DHT22;4094;49.948;11.574;2022-12-08T07:05:47;6.60;70.10
8103;DHT22;4094;49.948;11.574;2022-12-08T07:08:16;6.60;70.20
8103;DHT22;4094;49.948;11.574;2022-12-08T07:10:46;6.70;69.90
8103;DHT22;4094;49.948;11.574;2022-12-08T07:13:16;6.70;69.90
8103;DHT22;4094;49.948;11.574;2022-12-08T07:15:46;6.70;69.70
8103;DHT22;4094;49.948;11.574;2022-12-08T07:18:15;6.70;69.60
8103;DHT22;4094;49.948;11.574;2022-12-08T07:20:44;6.60;69.70
8103;DHT22;4094;49.948;11.574;2022-12-08T07:23:13;6.60;69.80
8103;DHT22;4094;49.948;11.574;2022-12-08T07:25:42;6.70;69.80
8103;DHT22;4094;49.948;11.574;2022-12-08T07:28:11;6.70;69.70
8103;DHT22;4094;49.948;11.574;2022-12-08T07:30:42;6.60;69.50
8103;DHT22;4094;49.948;11.574;2022-12-08T07:33:12;6.60;69.20
8103;DHT22;4094;49.948;11.574;2022-12-08T07:35:41;6.60;69.10
8103;DHT22;4094;49.948;11.574;2022-12-08T07:38:16;6.60;69.40
8103;DHT22;4094;49.948;11.574;2022-12-08T07:40:45;6.60;69.70
8103;DHT22;4094;49.948;11.574;2022-12-08T07:43:14;6.60;69.60
8103;DHT22;4094;49.948;11.574;2022-12-08T07:45:43;6.60;69.80
8103;DHT22;4094;49.948;11.574;2022-12-08T07:48:13;6.60;70.10
8103;DHT22;4094;49.948;11.574;2022-12-08T07:50:43;6.70;69.90
8103;DHT22;4094;49.948;11.574;2022-12-08T07:53:12;6.70;69.80
8103;DHT22;4094;49.948;11.574;2022-12-08T07:55:42;6.70;69.80
8103;DHT22;4094;49.948;11.574;2022-12-08T07:58:11;6.70;69.80
8103;DHT22;4094;49.948;11.574;2022-12-08T08:00:40;6.70;69.60
8103;DHT22;4094;49.948;11.574;2022-12-08T08:03:10;6.70;69.00
8103;DHT22;4094;49.948;11.574;2022-12-08T08:05:41;6.60;69.00
8103;DHT22;4094;49.948;11.574;2022-12-08T08:08:10;6.60;69.10
8103;DHT22;4094;49.948;11.574;2022-12-08T08:10:40;6.60;69.50
8103;DHT22;4094;49.948;11.574;2022-12-08T08:13:09;6.50;69.40
8103;DHT22;4094;49.948;11.574;2022-12-08T08:15:39;6.50;69.60
8103;DHT22;4094;49.948;11.574;2022-12-08T08:18:08;6.50;69.80
8103;DHT22;4094;49.948;11.574;2022-12-08T08:20:37;6.50;69.70
8103;DHT22;4094;49.948;11.574;2022-12-08T08:23:08;6.50;69.70
8103;DHT22;4094;49.948;11.574;2022-12-08T08:25:38;6.50;69.40
8103;DHT22;4094;49.948;11.574;2022-12-08T08:28:08;6.50;69.30
8103;DHT22;4094;49.948;11.574;2022-12-08T08:30:37;6.50;69.50
8103;DHT22;4094;49.948;11.574;2022-12-08T08:33:06;6.40;69.40
8103;DHT22;4094;49.948;11.574;2022-12-08T08:35:36;6.40;69.50
8103;DHT22;4094;49.948;11.574;2022-12-08T08:38:05;6.40;69.80
8103;DHT22;4094;49.948;11.574;2022-12-08T08:40:35;6.50;70.10
8103;DHT22;4094;49.948;11.574;2022-12-08T08:43:05;6.50;69.70
8103;DHT22;4094;49.948;11.574;2022-12-08T08:45:36;6.50;69.40
8103;DHT22;4094;49.948;11.574;2022-12-08T08:48:05;6.50;69.40
8103;DHT22;4094;49.948;11.574;2022-12-08T08:50:35;6.50;69.60
8103;DHT22;4094;49.948;11.574;2022-12-08T08:53:04;6.50;69.40
8103;DHT22;4094;49.948;11.574;2022-12-08T08:55:39;6.50;70.00
8103;DHT22;4094;49.948;11.574;2022-12-08T08:58:08;6.50;69.60
8103;DHT22;4094;49.948;11.574;2022-12-08T09:00:37;6.50;69.00
8103;DHT22;4094;49.948;11.574;2022-12-08T09:03:07;6.50;68.80
8103;DHT22;4094;49.948;11.574;2022-12-08T09:05:37;6.50;69.10
8103;DHT22;4094;49.948;11.574;2022-12-08T09:08:08;6.40;68.70
8103;DHT22;4094;49.948;11.574;2022-12-08T09:10:38;6.40;68.90
8103;DHT22;4094;49.948;11.574;2022-12-08T09:13:08;6.40;69.70
8103;DHT22;4094;49.948;11.574;2022-12-08T09:15:38;6.40;69.90
8103;DHT22;4094;49.948;11.574;2022-12-08T09:18:07;6.40;69.60
8103;DHT22;4094;49.948;11.574;2022-12-08T09:20:36;6.40;68.90
8103;DHT22;4094;49.948;11.574;2022-12-08T09:23:06;6.40;68.80
8103;DHT22;4094;49.948;11.574;2022-12-08T09:25:35;6.40;68.90
8103;DHT22;4094;49.948;11.574;2022-12-08T09:28:06;6.40;69.20
8103;DHT22;4094;49.948;11.574;2022-12-08T09:30:35;6.40;69.50
8103;DHT22;4094;49.948;11.574;2022-12-08T09:33:05;6.40;69.30
8103;DHT22;4094;49.948;11.574;2022-12-08T09:35:34;6.40;69.00
8103;DHT22;4094;49.948;11.574;2022-12-08T09:38:04;6.40;68.90
8103;DHT22;4094;49.948;11.574;2022-12-08T09:40:39;6.40;68.90
8103;DHT22;4094;49.948;11.574;2022-12-08T09:43:23;6.30;68.90
8103;DHT22;4094;49.948;11.574;2022-12-08T09:45:54;6.30;69.10
8103;DHT22;4094;49.948;11.574;2022-12-08T09:48:30;6.30;69.60
8103;DHT22;4094;49.948;11.574;2022-12-08T09:51:02;6.40;69.30
8103;DHT22;4094;49.948;11.574;2022-12-08T09:53:35;6.40;69.20
8103;DHT22;4094;49.948;11.574;2022-12-08T09:56:09;6.40;69.30
8103;DHT22;4094;49.948;11.574;2022-12-08T09:58:48;6.40;69.50
8103;DHT22;4094;49.948;11.574;2022-12-08T10:01:21;6.40;69.40
8103;DHT22;4094;49.948;11.574;2022-12-08T10:03:52;6.50;69.20
8103;DHT22;4094;49.948;11.574;2022-12-08T10:06:27;6.50;68.80
8103;DHT22;4094;49.948;11.574;2022-12-08T10:09:07;6.50;68.70
8103;DHT22;4094;49.948;11.574;2022-12-08T10:11:52;6.40;68.70
8103;DHT22;4094;49.948;11.574;2022-12-08T10:14:32;6.40;69.10
8103;DHT22;4094;49.948;11.574;2022-12-08T10:17:08;6.40;69.30
8103;DHT22;4094;49.948;11.574;2022-12-08T10:19:42;6.40;69.00
8103;DHT22;4094;49.948;11.574;2022-12-08T10:22:19;6.40;68.90
8103;DHT22;4094;49.948;11.574;2022-12-08T10:24:56;6.40;68.80
8103;DHT22;4094;49.948;11.574;2022-12-08T10:27:27;6.40;69.50
8103;DHT22;4094;49.948;11.574;2022-12-08T10:29:57;6.30;68.90
8103;DHT22;4094;49.948;11.574;2022-12-08T10:32:33;6.30;68.90
8103;DHT22;4094;49.948;11.574;2022-12-08T10:35:06;6.40;69.00
8103;DHT22;4094;49.948;11.574;2022-12-08T10:37:36;6.40;69.20
8103;DHT22;4094;49.948;11.574;2022-12-08T10:40:09;6.40;69.20
8103;DHT22;4094;49.948;11.574;2022-12-08T10:42:42;6.40;69.20
8103;DHT22;4094;49.948;11.574;2022-12-08T10:45:25;6.40;69.20
8103;DHT22;4094;49.948;11.574;2022-12-08T10:48:01;6.40;68.90
8103;DHT22;4094;49.948;11.574;2022-12-08T10:50:33;6.50;69.30
8103;DHT22;4094;49.948;11.574;2022-12-08T10:53:11;6.50;69.20
8103;DHT22;4094;49.948;11.574;2022-12-08T10:55:43;6.50;69.00
8103;DHT22;4094;49.948;11.574;2022-12-08T10:58:23;6.50;68.90
8103;DHT22;4094;49.948;11.574;2022-12-08T11:00:57;6.60;68.90
8103;DHT22;4094;49.948;11.574;2022-12-08T11:03:28;6.60;68.60
8103;DHT22;4094;49.948;11.574;2022-12-08T11:05:59;6.60;68.40
8103;DHT22;4094;49.948;11.574;2022-12-08T11:08:46;6.60;68.50
8103;DHT22;4094;49.948;11.574;2022-12-08T11:11:16;6.50;68.40
8103;DHT22;4094;49.948;11.574;2022-12-08T11:13:50;6.50;68.60
8103;DHT22;4094;49.948;11.574;2022-12-08T11:16:22;6.60;68.80
8103;DHT22;4094;49.948;11.574;2022-12-08T11:18:55;6.50;68.50
8103;DHT22;4094;49.948;11.574;2022-12-08T11:21:36;6.50;68.60
8103;DHT22;4094;49.948;11.574;2022-12-08T11:24:20;6.50;68.80
8103;DHT22;4094;49.948;11.574;2022-12-08T11:26:53;6.60;68.90
8103;DHT22;4094;49.948;11.574;2022-12-08T11:29:22;6.70;68.80
8103;DHT22;4094;49.948;11.574;2022-12-08T11:31:57;6.70;68.90
8103;DHT22;4094;49.948;11.574;2022-12-08T11:34:31;6.70;69.00
8103;DHT22;4094;49.948;11.574;2022-12-08T11:37:04;6.80;68.80
8103;DHT22;4094;49.948;11.574;2022-12-08T11:39:38;6.80;68.50
8103;DHT22;4094;49.948;11.574;2022-12-08T11:42:12;6.80;68.10
8103;DHT22;4094;49.948;11.574;2022-12-08T11:44:48;6.80;68.00
8103;DHT22;4094;49.948;11.574;2022-12-08T11:47:23;6.80;68.30
8103;DHT22;4094;49.948;11.574;2022-12-08T11:50:01;6.80;68.20
8103;DHT22;4094;49.948;11.574;2022-12-08T11:52:35;6.80;68.60
8103;DHT22;4094;49.948;11.574;2022-12-08T11:55:25;6.80;68.60
8103;DHT22;4094;49.948;11.574;2022-12-08T11:57:56;6.90;68.80
8103;DHT22;4094;49.948;11.574;2022-12-08T12:00:26;6.90;68.50
8103;DHT22;4094;49.948;11.574;2022-12-08T12:03:03;7.00;68.60
8103;DHT22;4094;49.948;11.574;2022-12-08T12:05:42;7.00;68.60
8103;DHT22;4094;49.948;11.574;2022-12-08T12:08:42;7.00;68.60
8103;DHT22;4094;49.948;11.574;2022-12-08T12:11:20;7.10;68.70
8103;DHT22;4094;49.948;11.574;2022-12-08T12:14:20;7.10;68.60
8103;DHT22;4094;49.948;11.574;2022-12-08T12:17:01;7.10;68.30
8103;DHT22;4094;49.948;11.574;2022-12-08T12:19:36;7.20;68.60
8103;DHT22;4094;49.948;11.574;2022-12-08T12:22:12;7.20;68.90
8103;DHT22;4094;49.948;11.574;2022-12-08T12:24:47;7.30;69.10
8103;DHT22;4094;49.948;11.574;2022-12-08T12:27:24;7.40;68.80
8103;DHT22;4094;49.948;11.574;2022-12-08T12:29:57;7.50;68.50
8103;DHT22;4094;49.948;11.574;2022-12-08T12:32:39;7.60;67.80
8103;DHT22;4094;49.948;11.574;2022-12-08T12:35:15;7.70;67.30
8103;DHT22;4094;49.948;11.574;2022-12-08T12:37:57;7.70;67.30
8103;DHT22;4094;49.948;11.574;2022-12-08T12:40:33;7.70;66.60
8103;DHT22;4094;49.948;11.574;2022-12-08T12:43:13;7.80;66.70
8103;DHT22;4094;49.948;11.574;2022-12-08T12:52:39;7.70;66.10
8103;DHT22;4094;49.948;11.574;2022-12-08T12:58:47;7.60;66.20
8103;DHT22;4094;49.948;11.574;2022-12-08T13:04:33;7.60;66.30
8103;DHT22;4094;49.948;11.574;2022-12-08T13:07:05;7.60;66.50
8103;DHT22;4094;49.948;11.574;2022-12-08T13:09:36;7.50;66.50
8103;DHT22;4094;49.948;11.574;2022-12-08T13:12:11;7.50;66.70
8103;DHT22;4094;49.948;11.574;2022-12-08T13:14:48;7.50;66.20
8103;DHT22;4094;49.948;11.574;2022-12-08T13:17:24;7.50;66.60
8103;DHT22;4094;49.948;11.574;2022-12-08T13:19:56;7.50;67.00
8103;DHT22;4094;49.948;11.574;2022-12-08T13:25:50;7.50;66.50
8103;DHT22;4094;49.948;11.574;2022-12-08T13:28:26;7.50;66.20
8103;DHT22;4094;49.948;11.574;2022-12-08T13:30:57;7.50;66.70
8103;DHT22;4094;49.948;11.574;2022-12-08T13:33:29;7.50;66.60
8103;DHT22;4094;49.948;11.574;2022-12-08T13:36:13;7.40;66.50
8103;DHT22;4094;49.948;11.574;2022-12-08T13:38:45;7.40;66.90
8103;DHT22;4094;49.948;11.574;2022-12-08T13:41:20;7.40;66.80
8103;DHT22;4094;49.948;11.574;2022-12-08T13:43:53;7.50;66.90
8103;DHT22;4094;49.948;11.574;2022-12-08T13:46:50;7.50;67.30
8103;DHT22;4094;49.948;11.574;2022-12-08T13:49:43;7.50;67.10
8103;DHT22;4094;49.948;11.574;2022-12-08T13:52:44;7.50;66.90
8103;DHT22;4094;49.948;11.574;2022-12-08T13:55:40;7.50;66.80
8103;DHT22;4094;49.948;11.574;2022-12-08T13:58:33;7.50;67.10
8103;DHT22;4094;49.948;11.574;2022-12-08T14:01:06;7.50;66.50
8103;DHT22;4094;49.948;11.574;2022-12-08T14:03:45;7.50;66.50
8103;DHT22;4094;49.948;11.574;2022-12-08T14:06:36;7.50;66.80
8103;DHT22;4094;49.948;11.574;2022-12-08T14:09:09;7.50;66.60
8103;DHT22;4094;49.948;11.574;2022-12-08T14:11:42;7.50;66.50
8103;DHT22;4094;49.948;11.574;2022-12-08T14:14:16;7.50;66.50
8103;DHT22;4094;49.948;11.574;2022-12-08T14:17:01;7.50;66.10
8103;DHT22;4094;49.948;11.574;2022-12-08T14:19:32;7.40;66.20
8103;DHT22;4094;49.948;11.574;2022-12-08T14:22:08;7.40;66.20
8103;DHT22;4094;49.948;11.574;2022-12-08T14:24:39;7.40;66.30
8103;DHT22;4094;49.948;11.574;2022-12-08T14:27:12;7.40;66.00
8103;DHT22;4094;49.948;11.574;2022-12-08T14:29:45;7.30;65.70
8103;DHT22;4094;49.948;11.574;2022-12-08T14:32:22;7.20;65.80
8103;DHT22;4094;49.948;11.574;2022-12-08T14:34:58;7.20;66.70
8103;DHT22;4094;49.948;11.574;2022-12-08T14:37:30;7.20;66.00
8103;DHT22;4094;49.948;11.574;2022-12-08T14:40:03;7.10;66.10
8103;DHT22;4094;49.948;11.574;2022-12-08T14:42:42;7.10;66.40
8103;DHT22;4094;49.948;11.574;2022-12-08T14:45:15;7.00;66.40
8103;DHT22;4094;49.948;11.574;2022-12-08T14:47:45;7.00;66.70
8103;DHT22;4094;49.948;11.574;2022-12-08T14:50:38;7.00;66.70
8103;DHT22;4094;49.948;11.574;2022-12-08T14:53:15;7.00;66.70
8103;DHT22;4094;49.948;11.574;2022-12-08T14:55:46;7.00;66.70
8103;DHT22;4094;49.948;11.574;2022-12-08T14:58:20;7.00;66.50
8103;DHT22;4094;49.948;11.574;2022-12-08T15:00:54;7.00;66.40
8103;DHT22;4094;49.948;11.574;2022-12-08T15:03:26;7.00;66.40
8103;DHT22;4094;49.948;11.574;2022-12-08T15:05:59;6.90;66.60
8103;DHT22;4094;49.948;11.574;2022-12-08T15:08:31;6.90;66.70
8103;DHT22;4094;49.948;11.574;2022-12-08T15:11:30;6.90;66.60
8103;DHT22;4094;49.948;11.574;2022-12-08T15:13:59;6.90;66.80
8103;DHT22;4094;49.948;11.574;2022-12-08T15:16:37;6.90;66.80
8103;DHT22;4094;49.948;11.574;2022-12-08T15:19:18;6.90;66.80
8103;DHT22;4094;49.948;11.574;2022-12-08T15:21:56;6.90;66.90
8103;DHT22;4094;49.948;11.574;2022-12-08T15:24:28;6.90;67.00
8103;DHT22;4094;49.948;11.574;2022-12-08T15:27:00;6.90;66.90
8103;DHT22;4094;49.948;11.574;2022-12-08T15:29:30;6.90;66.80
8103;DHT22;4094;49.948;11.574;2022-12-08T15:32:01;6.90;66.90
8103;DHT22;4094;49.948;11.574;2022-12-08T15:34:30;6.90;66.90
8103;DHT22;4094;49.948;11.574;2022-12-08T15:36:59;6.90;67.00
8103;DHT22;4094;49.948;11.574;2022-12-08T15:39:33;6.90;67.00
8103;DHT22;4094;49.948;11.574;2022-12-08T15:42:08;6.90;67.10
8103;DHT22;4094;49.948;11.574;2022-12-08T15:44:38;6.90;67.10
8103;DHT22;4094;49.948;11.574;2022-12-08T15:47:14;6.90;67.20
8103;DHT22;4094;49.948;11.574;2022-12-08T15:49:43;6.90;67.50
8103;DHT22;4094;49.948;11.574;2022-12-08T15:52:14;7.00;67.50
8103;DHT22;4094;49.948;11.574;2022-12-08T15:54:44;7.00;67.30
8103;DHT22;4094;49.948;11.574;2022-12-08T15:57:18;7.00;67.50
8103;DHT22;4094;49.948;11.574;2022-12-08T16:00:26;7.00;67.70
8103;DHT22;4094;49.948;11.574;2022-12-08T16:03:24;7.00;68.50
8103;DHT22;4094;49.948;11.574;2022-12-08T16:06:16;7.00;67.50
8103;DHT22;4094;49.948;11.574;2022-12-08T16:09:08;7.00;67.40
8103;DHT22;4094;49.948;11.574;2022-12-08T16:11:40;7.00;67.50
8103;DHT22;4094;49.948;11.574;2022-12-08T16:14:37;7.00;67.40
8103;DHT22;4094;49.948;11.574;2022-12-08T16:17:28;7.00;67.70
8103;DHT22;4094;49.948;11.574;2022-12-08T16:19:59;7.00;67.60
8103;DHT22;4094;49.948;11.574;2022-12-08T16:22:31;6.90;67.30
8103;DHT22;4094;49.948;11.574;2022-12-08T16:25:21;6.90;67.30
8103;DHT22;4094;49.948;11.574;2022-12-08T16:27:53;6.90;67.60
8103;DHT22;4094;49.948;11.574;2022-12-08T16:30:32;6.90;67.80
8103;DHT22;4094;49.948;11.574;2022-12-08T16:33:02;6.90;67.90
8103;DHT22;4094;49.948;11.574;2022-12-08T16:35:32;6.90;67.70
8103;DHT22;4094;49.948;11.574;2022-12-08T16:38:01;6.90;67.70
8103;DHT22;4094;49.948;11.574;2022-12-08T16:40:30;6.90;67.90
8103;DHT22;4094;49.948;11.574;2022-12-08T16:42:59;6.90;68.10
8103;DHT22;4094;49.948;11.574;2022-12-08T16:45:28;6.90;68.00
8103;DHT22;4094;49.948;11.574;2022-12-08T16:47:59;6.90;67.90
8103;DHT22;4094;49.948;11.574;2022-12-08T16:50:29;6.90;68.10
8103;DHT22;4094;49.948;11.574;2022-12-08T16:53:02;6.90;68.20
8103;DHT22;4094;49.948;11.574;2022-12-08T16:55:32;6.90;68.40
8103;DHT22;4094;49.948;11.574;2022-12-08T16:58:01;6.90;68.20
8103;DHT22;4094;49.948;11.574;2022-12-08T17:00:32;6.90;68.10